sensor_id;sensor_type;location;lat;lon;timestamp;pressure;altitude;pressure_sealevel;temperature;humidity
39455;BME280;25155;41.890;23.446;2023-04-10T00:02:23;91909.66;;;3.01;67.15
39455;BME280;25155;41.890;23.446;2023-04-10T00:04:51;91913.47;;;2.99;67.44
39455;BME280;25155;41.890;23.446;2023-04-10T00:07:18;91907.41;;;2.93;68.36
39455;BME280;25155;41.890;23.446;2023-04-10T00:09:46;91906.06;;;2.90;67.96
39455;BME280;25155;41.890;23.446;2023-04-10T00:12:13;91904.81;;;2.93;67.77
39455;BME280;25155;41.890;23.446;2023-04-10T00:14:41;91902.47;;;2.91;67.75
39455;BME280;25155;41.890;23.446;2023-04-10T00:17:10;91892.34;;;2.90;68.00
39455;BME280;25155;41.890;23.446;2023-04-10T00:19:37;91890.84;;;2.94;67.58
39455;BME280;25155;41.890;23.446;2023-04-10T00:22:04;91889.63;;;2.97;67.41
39455;BME280;25155;41.890;23.446;2023-04-10T00:24:31;91892.00;;;2.98;67.13
39455;BME280;25155;41.890;23.446;2023-04-10T00:26:58;91892.00;;;2.98;67.61
39455;BME280;25155;41.890;23.446;2023-04-10T00:29:27;91892.00;;;2.98;67.76
39455;BME280;25155;41.890;23.446;2023-04-10T00:31:54;91886.34;;;3.01;67.56
39455;BME280;25155;41.890;23.446;2023-04-10T00:34:23;91881.94;;;3.02;67.55
39455;BME280;25155;41.890;23.446;2023-04-10T00:36:51;91878.88;;;3.05;67.04
39455;BME280;25155;41.890;23.446;2023-04-10T00:39:18;91880.22;;;3.07;66.87
39455;BME280;25155;41.890;23.446;2023-04-10T00:41:45;91872.19;;;3.09;67.38
39455;BME280;25155;41.890;23.446;2023-04-10T00:44:12;91871.13;;;3.05;67.12
39455;BME280;25155;41.890;23.446;2023-04-10T00:46:40;91870.81;;;3.01;66.86
39455;BME280;25155;41.890;23.446;2023-04-10T00:49:07;91867.91;;;2.98;67.13
39455;BME280;25155;41.890;23.446;2023-04-10T00:51:37;91867.53;;;2.94;67.43
39455;BME280;25155;41.890;23.446;2023-04-10T00:54:04;91856.97;;;2.96;67.63
39455;BME280;25155;41.890;23.446;2023-04-10T00:56:32;91859.25;;;2.92;67.71
39455;BME280;25155;41.890;23.446;2023-04-10T00:59:00;91855.56;;;2.88;67.70
39455;BME280;25155;41.890;23.446;2023-04-10T01:01:28;91850.38;;;2.88;67.52
39455;BME280;25155;41.890;23.446;2023-04-10T01:03:55;91846.75;;;2.89;67.42
39455;BME280;25155;41.890;23.446;2023-04-10T01:06:33;91845.75;;;2.90;67.68
39455;BME280;25155;41.890;23.446;2023-04-10T01:09:27;91845.69;;;2.85;67.31
39455;BME280;25155;41.890;23.446;2023-04-10T01:12:03;91840.56;;;2.90;67.52
39455;BME280;25155;41.890;23.446;2023-04-10T01:14:41;91825.59;;;2.92;67.13
39455;BME280;25155;41.890;23.446;2023-04-10T01:17:17;91825.34;;;2.94;67.22
39455;BME280;25155;41.890;23.446;2023-04-10T01:20:03;91832.88;;;2.95;67.23
39455;BME280;25155;41.890;23.446;2023-04-10T01:22:35;91829.31;;;2.96;67.15
39455;BME280;25155;41.890;23.446;2023-04-10T01:25:29;91830.53;;;2.94;66.86
39455;BME280;25155;41.890;23.446;2023-04-10T01:28:23;91824.50;;;2.88;66.98
39455;BME280;25155;41.890;23.446;2023-04-10T01:31:00;91820.34;;;2.87;66.82
39455;BME280;25155;41.890;23.446;2023-04-10T01:33:33;91820.09;;;2.88;67.23
39455;BME280;25155;41.890;23.446;2023-04-10T01:36:04;91820.81;;;2.84;67.64
39455;BME280;25155;41.890;23.446;2023-04-10T01:38:33;91822.38;;;2.85;67.26
39455;BME280;25155;41.890;23.446;2023-04-10T01:41:03;91836.09;;;2.85;67.25
39455;BME280;25155;41.890;23.446;2023-04-10T01:43:32;91828.34;;;2.85;67.25
39455;BME280;25155;41.890;23.446;2023-04-10T01:46:03;91836.66;;;2.87;67.46
39455;BME280;25155;41.890;23.446;2023-04-10T01:48:30;91840.56;;;2.90;67.62
39455;BME280;25155;41.890;23.446;2023-04-10T01:50:59;91840.56;;;2.90;67.08
39455;BME280;25155;41.890;23.446;2023-04-10T01:53:29;91838.75;;;2.90;67.31
39455;BME280;25155;41.890;23.446;2023-04-10T01:55:58;91839.56;;;2.91;67.27
39455;BME280;25155;41.890;23.446;2023-04-10T01:58:27;91844.41;;;2.87;66.83
39455;BME280;25155;41.890;23.446;2023-04-10T02:00:54;91842.09;;;2.86;66.91
39455;BME280;25155;41.890;23.446;2023-04-10T02:03:23;91842.31;;;2.84;67.12
39455;BME280;25155;41.890;23.446;2023-04-10T02:05:56;91841.44;;;2.79;67.08
39455;BME280;25155;41.890;23.446;2023-04-10T02:08:33;91835.63;;;2.71;67.04
39455;BME280;25155;41.890;23.446;2023-04-10T02:11:06;91835.88;;;2.70;67.06
39455;BME280;25155;41.890;23.446;2023-04-10T02:13:39;91834.53;;;2.67;67.38
39455;BME280;25155;41.890;23.446;2023-04-10T02:16:07;91835.34;;;2.68;67.74
39455;BME280;25155;41.890;23.446;2023-04-10T02:18:37;91831.72;;;2.69;67.52
39455;BME280;25155;41.890;23.446;2023-04-10T02:21:07;91832.00;;;2.72;67.80
39455;BME280;25155;41.890;23.446;2023-04-10T02:23:34;91833.81;;;2.72;67.86
39455;BME280;25155;41.890;23.446;2023-04-10T02:26:07;91836.19;;;2.73;67.73
39455;BME280;25155;41.890;23.446;2023-04-10T02:28:36;91831.16;;;2.67;68.06
39455;BME280;25155;41.890;23.446;2023-04-10T02:31:04;91836.09;;;2.68;68.42
39455;BME280;25155;41.890;23.446;2023-04-10T02:33:31;91830.94;;;2.68;68.35
39455;BME280;25155;41.890;23.446;2023-04-10T02:36:00;91825.44;;;2.65;68.97
39455;BME280;25155;41.890;23.446;2023-04-10T02:38:28;91827.81;;;2.66;68.61
39455;BME280;25155;41.890;23.446;2023-04-10T02:40:55;91819.00;;;2.67;68.37
39455;BME280;25155;41.890;23.446;2023-04-10T02:43:22;91827.09;;;2.71;68.06
39455;BME280;25155;41.890;23.446;2023-04-10T02:45:49;91826.84;;;2.72;68.22
39455;BME280;25155;41.890;23.446;2023-04-10T02:48:17;91823.25;;;2.73;67.89
39455;BME280;25155;41.890;23.446;2023-04-10T02:50:44;91821.19;;;2.76;68.14
39455;BME280;25155;41.890;23.446;2023-04-10T02:53:15;91820.03;;;2.66;68.63
39455;BME280;25155;41.890;23.446;2023-04-10T02:55:42;91826.53;;;2.69;68.65
39455;BME280;25155;41.890;23.446;2023-04-10T02:58:09;91824.97;;;2.68;68.57
39455;BME280;25155;41.890;23.446;2023-04-10T03:00:36;91820.56;;;2.68;68.23
39455;BME280;25155;41.890;23.446;2023-04-10T03:03:04;91818.00;;;2.68;68.52
39455;BME280;25155;41.890;23.446;2023-04-10T03:05:31;91816.66;;;2.66;68.40
39455;BME280;25155;41.890;23.446;2023-04-10T03:08:00;91817.44;;;2.66;68.32
39455;BME280;25155;41.890;23.446;2023-04-10T03:10:28;91814.28;;;2.64;68.07
39455;BME280;25155;41.890;23.446;2023-04-10T03:12:56;91820.28;;;2.65;68.24
39455;BME280;25155;41.890;23.446;2023-04-10T03:15:23;91817.91;;;2.63;68.19
39455;BME280;25155;41.890;23.446;2023-04-10T03:17:50;91822.31;;;2.63;68.04
39455;BME280;25155;41.890;23.446;2023-04-10T03:20:17;91829.28;;;2.62;68.11
39455;BME280;25155;41.890;23.446;2023-04-10T03:22:45;91825.38;;;2.60;68.24
39455;BME280;25155;41.890;23.446;2023-04-10T03:25:12;91821.19;;;2.59;68.21
39455;BME280;25155;41.890;23.446;2023-04-10T03:27:41;91823.00;;;2.58;68.91
39455;BME280;25155;41.890;23.446;2023-04-10T03:30:09;91823.88;;;2.47;70.35
39455;BME280;25155;41.890;23.446;2023-04-10T03:32:37;91823.28;;;2.28;71.36
39455;BME280;25155;41.890;23.446;2023-04-10T03:35:07;91825.09;;;2.27;71.24
39455;BME280;25155;41.890;23.446;2023-04-10T03:37:34;91825.41;;;2.31;70.97
39455;BME280;25155;41.890;23.446;2023-04-10T03:40:05;91817.41;;;2.32;70.61
39455;BME280;25155;41.890;23.446;2023-04-10T03:42:35;91834.19;;;2.30;71.32
39455;BME280;25155;41.890;23.446;2023-04-10T03:45:05;91830.03;;;2.29;71.10
39455;BME280;25155;41.890;23.446;2023-04-10T03:47:32;91831.38;;;2.31;71.34
39455;BME280;25155;41.890;23.446;2023-04-10T03:50:00;91826.38;;;2.13;72.73
39455;BME280;25155;41.890;23.446;2023-04-10T03:52:28;91835.16;;;2.12;72.95
39455;BME280;25155;41.890;23.446;2023-04-10T03:54:55;91829.31;;;2.16;72.54
39455;BME280;25155;41.890;23.446;2023-04-10T03:57:22;91832.44;;;2.18;72.25
39455;BME280;25155;41.890;23.446;2023-04-10T03:59:49;91839.50;;;2.23;72.13
39455;BME280;25155;41.890;23.446;2023-04-10T04:02:18;91829.72;;;2.25;72.15
39455;BME280;25155;41.890;23.446;2023-04-10T04:04:46;91829.16;;;2.23;72.09
39455;BME280;25155;41.890;23.446;2023-04-10T04:07:13;91826.34;;;2.25;72.04
39455;BME280;25155;41.890;23.446;2023-04-10T04:09:40;91827.22;;;2.30;71.98
39455;BME280;25155;41.890;23.446;2023-04-10T04:12:07;91829.34;;;2.33;71.40
39455;BME280;25155;41.890;23.446;2023-04-10T04:14:35;91826.81;;;2.39;71.36
39455;BME280;25155;41.890;23.446;2023-04-10T04:17:02;91829.97;;;2.41;71.54
39455;BME280;25155;41.890;23.446;2023-04-10T04:19:31;91824.00;;;2.40;71.43
39455;BME280;25155;41.890;23.446;2023-04-10T04:21:58;91837.81;;;2.46;71.30
39455;BME280;25155;41.890;23.446;2023-04-10T04:24:26;91827.00;;;2.49;71.32
39455;BME280;25155;41.890;23.446;2023-04-10T04:26:54;91831.38;;;2.48;71.05
39455;BME280;25155;41.890;23.446;2023-04-10T04:29:21;91820.97;;;2.43;71.25
39455;BME280;25155;41.890;23.446;2023-04-10T04:31:49;91833.91;;;2.43;71.40
39455;BME280;25155;41.890;23.446;2023-04-10T04:34:16;91832.09;;;2.44;71.20
39455;BME280;25155;41.890;23.446;2023-04-10T04:36:45;91839.38;;;2.47;71.19
39455;BME280;25155;41.890;23.446;2023-04-10T04:39:12;91831.69;;;2.52;71.15
39455;BME280;25155;41.890;23.446;2023-04-10T04:45:02;91826.75;;;2.50;70.93
39455;BME280;25155;41.890;23.446;2023-04-10T04:47:29;91824.78;;;2.58;71.10
39455;BME280;25155;41.890;23.446;2023-04-10T04:49:56;91831.84;;;2.62;70.74
39455;BME280;25155;41.890;23.446;2023-04-10T04:52:25;91831.84;;;2.62;70.84
39455;BME280;25155;41.890;23.446;2023-04-10T04:54:52;91825.75;;;2.68;70.78
39455;BME280;25155;41.890;23.446;2023-04-10T04:57:20;91831.25;;;2.72;70.60
39455;BME280;25155;41.890;23.446;2023-04-10T04:59:47;91831.56;;;2.76;70.79
39455;BME280;25155;41.890;23.446;2023-04-10T05:02:14;91832.28;;;2.71;71.18
39455;BME280;25155;41.890;23.446;2023-04-10T05:04:43;91827.56;;;2.68;71.76
39455;BME280;25155;41.890;23.446;2023-04-10T05:07:10;91832.50;;;2.69;71.59
39455;BME280;25155;41.890;23.446;2023-04-10T05:09:39;91829.69;;;2.71;71.36
39455;BME280;25155;41.890;23.446;2023-04-10T05:12:06;91836.25;;;2.79;71.16
39455;BME280;25155;41.890;23.446;2023-04-10T05:14:34;91827.03;;;2.83;71.04
39455;BME280;25155;41.890;23.446;2023-04-10T05:17:01;91823.09;;;2.80;71.42
39455;BME280;25155;41.890;23.446;2023-04-10T05:19:29;91830.78;;;2.75;72.59
39455;BME280;25155;41.890;23.446;2023-04-10T05:21:56;91833.66;;;2.79;72.39
39455;BME280;25155;41.890;23.446;2023-04-10T05:24:23;91828.03;;;2.82;72.63
39455;BME280;25155;41.890;23.446;2023-04-10T05:26:51;91825.75;;;2.85;72.07
39455;BME280;25155;41.890;23.446;2023-04-10T05:29:20;91824.50;;;2.88;72.03
39455;BME280;25155;41.890;23.446;2023-04-10T05:31:49;91829.13;;;2.86;71.82
39455;BME280;25155;41.890;23.446;2023-04-10T05:34:17;91831.31;;;2.94;72.00
39455;BME280;25155;41.890;23.446;2023-04-10T05:36:44;91827.81;;;3.00;71.94
39455;BME280;25155;41.890;23.446;2023-04-10T05:39:11;91839.59;;;3.08;71.90
39455;BME280;25155;41.890;23.446;2023-04-10T05:41:38;91839.41;;;3.15;72.10
39455;BME280;25155;41.890;23.446;2023-04-10T05:44:07;91838.13;;;3.17;71.74
39455;BME280;25155;41.890;23.446;2023-04-10T05:46:34;91835.66;;;3.22;72.15
39455;BME280;25155;41.890;23.446;2023-04-10T05:49:01;91841.91;;;3.26;72.25
39455;BME280;25155;41.890;23.446;2023-04-10T05:51:28;91845.84;;;3.29;72.06
39455;BME280;25155;41.890;23.446;2023-04-10T05:53:55;91844.31;;;3.33;72.14
39455;BME280;25155;41.890;23.446;2023-04-10T05:56:22;91838.44;;;3.38;71.88
39455;BME280;25155;41.890;23.446;2023-04-10T05:58:50;91843.16;;;3.41;71.65
39455;BME280;25155;41.890;23.446;2023-04-10T06:01:18;91852.16;;;3.38;72.29
39455;BME280;25155;41.890;23.446;2023-04-10T06:03:46;91849.09;;;3.41;72.84
39455;BME280;25155;41.890;23.446;2023-04-10T06:06:13;91852.78;;;3.45;72.94
39455;BME280;25155;41.890;23.446;2023-04-10T06:08:40;91848.16;;;3.47;72.80
39455;BME280;25155;41.890;23.446;2023-04-10T06:11:07;91850.03;;;3.52;72.79
39455;BME280;25155;41.890;23.446;2023-04-10T06:13:35;91853.22;;;3.59;72.65
39455;BME280;25155;41.890;23.446;2023-04-10T06:16:02;91849.69;;;3.65;72.82
39455;BME280;25155;41.890;23.446;2023-04-10T06:18:31;91843.84;;;3.75;72.92
39455;BME280;25155;41.890;23.446;2023-04-10T06:20:59;91848.34;;;3.85;72.48
39455;BME280;25155;41.890;23.446;2023-04-10T06:23:26;91843.28;;;3.95;72.62
39455;BME280;25155;41.890;23.446;2023-04-10T06:25:54;91842.53;;;4.00;71.95
39455;BME280;25155;41.890;23.446;2023-04-10T06:28:21;91841.53;;;4.01;70.20
39455;BME280;25155;41.890;23.446;2023-04-10T06:30:48;91835.84;;;4.04;68.91
39455;BME280;25155;41.890;23.446;2023-04-10T06:33:15;91834.59;;;4.07;67.88
39455;BME280;25155;41.890;23.446;2023-04-10T06:35:43;91841.94;;;4.15;67.92
39455;BME280;25155;41.890;23.446;2023-04-10T06:38:11;91834.50;;;4.24;68.30
39455;BME280;25155;41.890;23.446;2023-04-10T06:40:38;91841.84;;;4.32;67.92
39455;BME280;25155;41.890;23.446;2023-04-10T06:43:06;91833.63;;;4.40;68.21
39455;BME280;25155;41.890;23.446;2023-04-10T06:45:33;91836.03;;;4.47;67.94
39455;BME280;25155;41.890;23.446;2023-04-10T06:48:00;91836.84;;;4.52;67.93
39455;BME280;25155;41.890;23.446;2023-04-10T06:50:28;91841.06;;;4.58;67.87
39455;BME280;25155;41.890;23.446;2023-04-10T06:52:56;91834.91;;;4.65;67.08
39455;BME280;25155;41.890;23.446;2023-04-10T06:55:24;91840.91;;;4.70;67.23
39455;BME280;25155;41.890;23.446;2023-04-10T06:57:51;91839.38;;;4.74;67.03
39455;BME280;25155;41.890;23.446;2023-04-10T07:00:19;91837.84;;;4.79;66.93
39455;BME280;25155;41.890;23.446;2023-04-10T07:02:46;91848.28;;;4.84;66.93
39455;BME280;25155;41.890;23.446;2023-04-10T07:05:14;91839.72;;;4.83;66.77
39455;BME280;25155;41.890;23.446;2023-04-10T07:07:41;91845.97;;;4.87;66.68
39455;BME280;25155;41.890;23.446;2023-04-10T07:10:10;91846.25;;;4.91;66.58
39455;BME280;25155;41.890;23.446;2023-04-10T07:12:37;91844.97;;;4.93;65.86
39455;BME280;25155;41.890;23.446;2023-04-10T07:15:06;91844.75;;;4.95;65.96
39455;BME280;25155;41.890;23.446;2023-04-10T07:17:33;91845.75;;;4.94;62.56
39455;BME280;25155;41.890;23.446;2023-04-10T07:20:00;91842.88;;;4.90;60.84
39455;BME280;25155;41.890;23.446;2023-04-10T07:22:27;91853.25;;;4.90;61.79
39455;BME280;25155;41.890;23.446;2023-04-10T07:24:55;91847.06;;;4.91;60.99
39455;BME280;25155;41.890;23.446;2023-04-10T07:27:24;91856.31;;;4.82;58.86
39455;BME280;25155;41.890;23.446;2023-04-10T07:29:53;91854.81;;;4.86;60.45
39455;BME280;25155;41.890;23.446;2023-04-10T07:32:20;91854.03;;;4.91;60.85
39455;BME280;25155;41.890;23.446;2023-04-10T07:34:47;91857.19;;;4.93;59.66
39455;BME280;25155;41.890;23.446;2023-04-10T07:37:15;91851.50;;;4.96;59.67
39455;BME280;25155;41.890;23.446;2023-04-10T07:39:42;91860.59;;;4.99;58.98
39455;BME280;25155;41.890;23.446;2023-04-10T07:42:10;91858.84;;;5.04;59.75
39455;BME280;25155;41.890;23.446;2023-04-10T07:44:38;91851.81;;;5.05;58.30
39455;BME280;25155;41.890;23.446;2023-04-10T07:47:06;91855.47;;;5.09;59.23
39455;BME280;25155;41.890;23.446;2023-04-10T07:49:33;91854.75;;;5.13;58.70
39455;BME280;25155;41.890;23.446;2023-04-10T07:52:00;91852.66;;;5.16;58.35
39455;BME280;25155;41.890;23.446;2023-04-10T07:54:27;91851.94;;;5.20;57.76
39455;BME280;25155;41.890;23.446;2023-04-10T07:56:57;91850.16;;;5.26;57.79
39455;BME280;25155;41.890;23.446;2023-04-10T07:59:26;91851.94;;;5.20;55.06
39455;BME280;25155;41.890;23.446;2023-04-10T08:01:54;91855.56;;;5.19;55.79
39455;BME280;25155;41.890;23.446;2023-04-10T08:04:21;91851.72;;;5.27;56.56
39455;BME280;25155;41.890;23.446;2023-04-10T08:06:48;91853.28;;;5.28;55.22
39455;BME280;25155;41.890;23.446;2023-04-10T08:09:15;91849.94;;;5.32;55.45
39455;BME280;25155;41.890;23.446;2023-04-10T08:11:43;91844.75;;;5.32;55.10
39455;BME280;25155;41.890;23.446;2023-04-10T08:14:10;91842.88;;;5.28;53.38
39455;BME280;25155;41.890;23.446;2023-04-10T08:16:38;91843.66;;;5.28;53.71
39455;BME280;25155;41.890;23.446;2023-04-10T08:19:07;91844.75;;;5.32;55.02
39455;BME280;25155;41.890;23.446;2023-04-10T08:21:34;91840.59;;;5.37;53.74
39455;BME280;25155;41.890;23.446;2023-04-10T08:24:02;91839.56;;;5.38;54.18
39455;BME280;25155;41.890;23.446;2023-04-10T08:26:29;91837.19;;;5.31;52.44
39455;BME280;25155;41.890;23.446;2023-04-10T08:28:57;91839.19;;;5.19;52.70
39455;BME280;25155;41.890;23.446;2023-04-10T08:31:26;91829.00;;;5.12;53.04
39455;BME280;25155;41.890;23.446;2023-04-10T08:33:53;91837.84;;;5.11;52.41
39455;BME280;25155;41.890;23.446;2023-04-10T08:36:22;91840.38;;;5.06;52.61
39455;BME280;25155;41.890;23.446;2023-04-10T08:38:49;91837.53;;;5.07;53.24
39455;BME280;25155;41.890;23.446;2023-04-10T08:41:17;91833.44;;;5.11;53.60
39455;BME280;25155;41.890;23.446;2023-04-10T08:43:45;91834.25;;;5.22;54.64
39455;BME280;25155;41.890;23.446;2023-04-10T08:46:14;91832.53;;;5.33;54.67
39455;BME280;25155;41.890;23.446;2023-04-10T08:48:46;91830.19;;;5.37;53.98
39455;BME280;25155;41.890;23.446;2023-04-10T08:51:17;91831.59;;;5.44;54.49
39455;BME280;25155;41.890;23.446;2023-04-10T08:53:50;91819.13;;;5.52;54.95
39455;BME280;25155;41.890;23.446;2023-04-10T08:56:17;91829.06;;;5.60;54.04
39455;BME280;25155;41.890;23.446;2023-04-10T08:58:45;91815.81;;;5.61;53.46
39455;BME280;25155;41.890;23.446;2023-04-10T09:01:12;91826.22;;;5.66;53.69
39455;BME280;25155;41.890;23.446;2023-04-10T09:03:40;91810.16;;;5.75;54.03
39455;BME280;25155;41.890;23.446;2023-04-10T09:06:08;91806.03;;;5.84;53.48
39455;BME280;25155;41.890;23.446;2023-04-10T09:08:35;91807.31;;;5.81;50.69
39455;BME280;25155;41.890;23.446;2023-04-10T09:11:04;91809.13;;;5.81;51.00
39455;BME280;25155;41.890;23.446;2023-04-10T09:13:35;91803.69;;;5.88;51.27
39455;BME280;25155;41.890;23.446;2023-04-10T09:16:03;91803.72;;;5.98;51.07
39455;BME280;25155;41.890;23.446;2023-04-10T09:18:44;91788.88;;;5.93;50.26
39455;BME280;25155;41.890;23.446;2023-04-10T09:21:14;91799.84;;;6.05;51.42
39455;BME280;25155;41.890;23.446;2023-04-10T09:23:43;91797.53;;;6.14;50.92
39455;BME280;25155;41.890;23.446;2023-04-10T09:26:27;91799.38;;;6.19;51.06
39455;BME280;25155;41.890;23.446;2023-04-10T09:29:00;91800.41;;;6.23;50.41
39455;BME280;25155;41.890;23.446;2023-04-10T09:31:29;91795.75;;;6.30;48.87
39455;BME280;25155;41.890;23.446;2023-04-10T09:34:13;91794.69;;;6.31;49.90
39455;BME280;25155;41.890;23.446;2023-04-10T09:36:41;91788.72;;;6.36;49.49
39455;BME280;25155;41.890;23.446;2023-04-10T09:39:10;91784.59;;;6.45;50.01
39455;BME280;25155;41.890;23.446;2023-04-10T09:41:49;91783.78;;;6.39;47.16
39455;BME280;25155;41.890;23.446;2023-04-10T09:44:18;91791.06;;;6.37;46.77
39455;BME280;25155;41.890;23.446;2023-04-10T09:46:53;91778.06;;;6.32;47.75
39455;BME280;25155;41.890;23.446;2023-04-10T09:49:20;91781.69;;;6.36;45.93
39455;BME280;25155;41.890;23.446;2023-04-10T09:51:48;91782.25;;;6.38;47.08
39455;BME280;25155;41.890;23.446;2023-04-10T09:54:15;91779.09;;;6.41;46.87
39455;BME280;25155;41.890;23.446;2023-04-10T09:56:44;91775.97;;;6.50;47.90
39455;BME280;25155;41.890;23.446;2023-04-10T09:59:13;91769.75;;;6.51;47.52
39455;BME280;25155;41.890;23.446;2023-04-10T10:01:42;91766.63;;;6.59;47.95
39455;BME280;25155;41.890;23.446;2023-04-10T10:04:10;91772.59;;;6.65;47.24
39455;BME280;25155;41.890;23.446;2023-04-10T10:06:40;91766.88;;;6.68;47.04
39455;BME280;25155;41.890;23.446;2023-04-10T10:09:07;91766.34;;;6.76;47.28
39455;BME280;25155;41.890;23.446;2023-04-10T10:11:35;91759.84;;;6.78;47.29
39455;BME280;25155;41.890;23.446;2023-04-10T10:14:03;91758.81;;;6.85;47.15
39455;BME280;25155;41.890;23.446;2023-04-10T10:16:38;91760.34;;;6.86;47.86
39455;BME280;25155;41.890;23.446;2023-04-10T10:19:16;91760.09;;;6.87;47.60
39455;BME280;25155;41.890;23.446;2023-04-10T10:21:46;91756.19;;;6.90;48.30
39455;BME280;25155;41.890;23.446;2023-04-10T10:24:14;91756.72;;;6.92;48.14
39455;BME280;25155;41.890;23.446;2023-04-10T10:26:43;91763.50;;;6.98;48.33
39455;BME280;25155;41.890;23.446;2023-04-10T10:29:14;91753.06;;;7.03;48.52
39455;BME280;25155;41.890;23.446;2023-04-10T10:31:44;91752.78;;;7.05;48.94
39455;BME280;25155;41.890;23.446;2023-04-10T10:34:14;91752.53;;;7.11;48.92
39455;BME280;25155;41.890;23.446;2023-04-10T10:36:42;91745.75;;;7.10;47.38
39455;BME280;25155;41.890;23.446;2023-04-10T10:39:22;91748.84;;;7.12;47.33
39455;BME280;25155;41.890;23.446;2023-04-10T10:41:53;91745.78;;;6.79;46.08
39455;BME280;25155;41.890;23.446;2023-04-10T10:44:35;91742.63;;;6.88;44.75
39455;BME280;25155;41.890;23.446;2023-04-10T10:47:13;91741.09;;;6.87;45.38
39455;BME280;25155;41.890;23.446;2023-04-10T10:49:52;91740.03;;;6.93;45.82
39455;BME280;25155;41.890;23.446;2023-04-10T10:52:43;91734.84;;;6.83;45.03
39455;BME280;25155;41.890;23.446;2023-04-10T10:55:32;91735.34;;;6.79;45.48
39455;BME280;25155;41.890;23.446;2023-04-10T10:58:04;91741.34;;;6.90;46.13
39455;BME280;25155;41.890;23.446;2023-04-10T11:01:05;91739.50;;;6.91;46.30
39455;BME280;25155;41.890;23.446;2023-04-10T11:03:37;91733.53;;;6.90;45.93
39455;BME280;25155;41.890;23.446;2023-04-10T11:06:06;91729.88;;;6.91;46.51
39455;BME280;25155;41.890;23.446;2023-04-10T11:08:38;91726.47;;;6.96;46.28
39455;BME280;25155;41.890;23.446;2023-04-10T11:11:09;91725.69;;;7.01;45.70
39455;BME280;25155;41.890;23.446;2023-04-10T11:13:38;91721.25;;;7.06;46.21
39455;BME280;25155;41.890;23.446;2023-04-10T11:16:07;91719.16;;;7.08;46.34
39455;BME280;25155;41.890;23.446;2023-04-10T11:19:02;91720.72;;;7.04;45.96
39455;BME280;25155;41.890;23.446;2023-04-10T11:21:30;91711.84;;;7.15;47.05
39455;BME280;25155;41.890;23.446;2023-04-10T11:24:02;91719.88;;;7.24;47.09
39455;BME280;25155;41.890;23.446;2023-04-10T11:26:37;91709.75;;;7.18;44.86
39455;BME280;25155;41.890;23.446;2023-04-10T11:29:31;91714.69;;;7.24;45.65
39455;BME280;25155;41.890;23.446;2023-04-10T11:31:57;91708.69;;;7.24;45.03
39455;BME280;25155;41.890;23.446;2023-04-10T11:34:25;91706.34;;;7.32;45.95
39455;BME280;25155;41.890;23.446;2023-04-10T11:36:53;91702.41;;;7.40;44.86
39455;BME280;25155;41.890;23.446;2023-04-10T11:39:20;91702.41;;;7.40;44.26
39455;BME280;25155;41.890;23.446;2023-04-10T11:41:49;91701.66;;;7.40;43.47
39455;BME280;25155;41.890;23.446;2023-04-10T11:44:18;91695.63;;;7.39;43.85
39455;BME280;25155;41.890;23.446;2023-04-10T11:46:47;91691.22;;;7.40;45.01
39455;BME280;25155;41.890;23.446;2023-04-10T11:49:17;91695.59;;;7.49;45.34
39455;BME280;25155;41.890;23.446;2023-04-10T11:51:47;91691.41;;;7.53;45.59
39455;BME280;25155;41.890;23.446;2023-04-10T11:54:16;91686.47;;;7.47;43.45
39455;BME280;25155;41.890;23.446;2023-04-10T11:56:44;91677.91;;;7.41;43.66
39455;BME280;25155;41.890;23.446;2023-04-10T11:59:11;91677.38;;;7.39;43.34
39455;BME280;25155;41.890;23.446;2023-04-10T12:01:41;91677.88;;;7.46;44.72
39455;BME280;25155;41.890;23.446;2023-04-10T12:04:17;91676.06;;;7.47;43.72
39455;BME280;25155;41.890;23.446;2023-04-10T12:06:47;91672.16;;;7.44;43.19
39455;BME280;25155;41.890;23.446;2023-04-10T12:09:15;91668.00;;;7.38;44.00
39455;BME280;25155;41.890;23.446;2023-04-10T12:11:48;91672.19;;;7.34;44.13
39455;BME280;25155;41.890;23.446;2023-04-10T12:14:16;91666.72;;;7.25;44.52
39455;BME280;25155;41.890;23.446;2023-04-10T12:16:43;91661.50;;;7.25;44.09
39455;BME280;25155;41.890;23.446;2023-04-10T12:19:11;91654.50;;;7.15;43.86
39455;BME280;25155;41.890;23.446;2023-04-10T12:21:40;91657.84;;;7.31;44.82
39455;BME280;25155;41.890;23.446;2023-04-10T12:24:09;91653.91;;;7.44;44.71
39455;BME280;25155;41.890;23.446;2023-04-10T12:26:36;91656.72;;;7.58;45.58
39455;BME280;25155;41.890;23.446;2023-04-10T12:29:03;91662.41;;;7.65;44.69
39455;BME280;25155;41.890;23.446;2023-04-10T12:31:34;91656.66;;;7.68;44.66
39455;BME280;25155;41.890;23.446;2023-04-10T12:34:02;91654.25;;;7.77;44.78
39455;BME280;25155;41.890;23.446;2023-04-10T12:36:31;91654.81;;;7.74;43.60
39455;BME280;25155;41.890;23.446;2023-04-10T12:39:00;91650.41;;;7.69;43.25
39455;BME280;25155;41.890;23.446;2023-04-10T12:41:31;91638.69;;;7.62;43.25
39455;BME280;25155;41.890;23.446;2023-04-10T12:44:09;91645.50;;;7.58;44.14
39455;BME280;25155;41.890;23.446;2023-04-10T12:46:37;91651.25;;;7.55;43.73
39455;BME280;25155;41.890;23.446;2023-04-10T12:49:08;91640.63;;;7.41;42.92
39455;BME280;25155;41.890;23.446;2023-04-10T12:51:43;91648.19;;;7.37;44.87
39455;BME280;25155;41.890;23.446;2023-04-10T12:54:10;91653.59;;;7.56;44.68
39455;BME280;25155;41.890;23.446;2023-04-10T12:56:43;91644.50;;;7.48;43.41
39455;BME280;25155;41.890;23.446;2023-04-10T12:59:12;91650.75;;;7.47;43.03
39455;BME280;25155;41.890;23.446;2023-04-10T13:01:39;91653.84;;;7.60;44.63
39455;BME280;25155;41.890;23.446;2023-04-10T13:04:06;91647.53;;;7.71;44.79
39455;BME280;25155;41.890;23.446;2023-04-10T13:06:41;91646.94;;;7.79;43.69
39455;BME280;25155;41.890;23.446;2023-04-10T13:09:08;91639.09;;;7.84;44.53
39455;BME280;25155;41.890;23.446;2023-04-10T13:11:36;91632.22;;;7.94;44.31
39455;BME280;25155;41.890;23.446;2023-04-10T13:14:04;91630.94;;;7.91;44.31
39455;BME280;25155;41.890;23.446;2023-04-10T13:16:31;91632.75;;;7.96;44.89